Time;durP1;ratioP1;P1;durP2;ratioP2;P2;SDS_P1;SDS_P2;PMS_P1;PMS_P2;Temp;Humidity;BMP_temperature;BMP_pressure;BME280_temperature;BME280_humidity;BME280_pressure;Samples;Min_cycle;Max_cycle;Signal;HPM_P1;HPM_P2
2022/03/08 00:02:21;;;;;;;13.60;7.00;;;3.60;99.70;;;;;;4991511;28;20030;-71
2022/03/08 00:04:47;;;;;;;12.70;6.18;;;3.50;99.90;;;;;;4991469;28;20044;-71
2022/03/08 00:07:12;;;;;;;13.73;7.20;;;3.50;99.90;;;;;;4995054;28;20029;-71
2022/03/08 00:09:39;;;;;;;14.70;7.80;;;3.50;99.90;;;;;;4988395;28;20018;-71
2022/03/08 00:12:06;;;;;;;12.05;7.15;;;3.50;99.90;;;;;;4990632;28;20030;-71
2022/03/08 00:14:33;;;;;;;11.52;6.20;;;3.50;99.90;;;;;;4992218;28;20030;-71
2022/03/08 00:16:58;;;;;;;14.40;6.85;;;3.40;99.90;;;;;;4989387;28;20101;-71
2022/03/08 00:19:24;;;;;;;14.75;6.78;;;3.40;99.90;;;;;;4990472;28;20632;-71
2022/03/08 00:21:50;;;;;;;12.35;6.78;;;3.40;99.90;;;;;;4992507;28;20030;-70
2022/03/08 00:24:16;;;;;;;12.90;6.32;;;3.40;99.90;;;;;;4993550;28;20475;-71
2022/03/08 00:26:43;;;;;;;14.50;8.15;;;3.40;99.90;;;;;;4991365;28;20030;-71
2022/03/08 00:29:08;;;;;;;13.65;6.88;;;3.40;99.90;;;;;;4992560;28;20053;-71
2022/03/08 00:31:34;;;;;;;11.60;5.78;;;3.30;99.90;;;;;;4993212;28;20089;-71
2022/03/08 00:34:01;;;;;;;16.25;7.07;;;3.30;99.90;;;;;;4994198;28;20041;-71
2022/03/08 00:36:27;;;;;;;14.48;7.07;;;3.40;99.90;;;;;;4995706;28;20101;-71
2022/03/08 00:38:52;;;;;;;13.38;7.15;;;3.30;99.90;;;;;;4990055;28;20125;-71
2022/03/08 00:41:18;;;;;;;13.70;7.03;;;3.30;99.90;;;;;;4992166;28;20038;-71
2022/03/08 00:43:44;;;;;;;14.57;8.23;;;3.30;99.90;;;;;;4995042;28;20033;-71
2022/03/08 00:46:10;;;;;;;14.82;7.20;;;3.40;99.90;;;;;;4996886;28;20046;-71
2022/03/08 00:48:35;;;;;;;12.95;6.15;;;3.30;99.90;;;;;;4996811;28;20031;-71
2022/03/08 00:51:01;;;;;;;19.65;8.32;;;3.30;99.90;;;;;;4993971;28;20084;-71
2022/03/08 00:53:27;;;;;;;14.88;7.18;;;3.30;99.90;;;;;;4990550;28;20123;-71
2022/03/08 00:55:52;;;;;;;14.65;6.72;;;3.30;99.90;;;;;;4997605;28;20084;-71
2022/03/08 00:58:20;;;;;;;12.90;6.63;;;3.30;99.90;;;;;;4998420;28;20626;-71
2022/03/08 01:00:46;;;;;;;15.80;7.47;;;3.20;99.90;;;;;;4996907;28;20033;-71
2022/03/08 01:03:11;;;;;;;15.35;6.60;;;3.30;99.90;;;;;;4998191;28;20027;-71
2022/03/08 01:05:37;;;;;;;13.27;6.18;;;3.20;99.90;;;;;;4999390;28;20038;-71
2022/03/08 01:08:04;;;;;;;13.00;5.97;;;3.20;99.90;;;;;;4995253;28;20026;-71
2022/03/08 01:10:31;;;;;;;13.13;6.75;;;3.20;99.90;;;;;;4996324;28;20034;-71
2022/03/08 01:12:57;;;;;;;11.50;5.97;;;3.10;99.90;;;;;;4994237;28;20038;-71
2022/03/08 01:15:24;;;;;;;17.38;7.38;;;3.10;99.90;;;;;;4997359;28;20093;-71
2022/03/08 01:17:51;;;;;;;12.23;6.47;;;3.10;99.90;;;;;;4994265;28;20065;-71
2022/03/08 01:20:17;;;;;;;14.90;6.53;;;3.10;99.90;;;;;;4997570;28;20105;-71
2022/03/08 01:22:43;;;;;;;14.68;6.55;;;3.10;99.90;;;;;;4999379;28;20049;-70
2022/03/08 01:25:10;;;;;;;13.27;6.68;;;3.10;99.90;;;;;;4997015;28;20026;-71
2022/03/08 01:27:36;;;;;;;12.05;5.90;;;3.10;99.90;;;;;;4998314;28;20072;-71
2022/03/08 01:30:05;;;;;;;12.88;6.38;;;3.00;99.90;;;;;;4999963;28;20041;-71
2022/03/08 01:32:31;;;;;;;15.18;6.45;;;3.00;99.90;;;;;;4998499;28;20487;-71
2022/03/08 01:34:56;;;;;;;10.57;5.72;;;3.00;99.90;;;;;;4998096;28;20032;-71
2022/03/08 01:37:23;;;;;;;13.93;6.00;;;3.00;99.90;;;;;;4996251;28;20040;-71
2022/03/08 01:39:49;;;;;;;11.98;5.72;;;3.00;99.90;;;;;;4998228;28;20034;-71
2022/03/08 01:42:16;;;;;;;10.43;5.32;;;3.00;99.90;;;;;;4999938;28;20084;-71
2022/03/08 01:44:43;;;;;;;11.93;5.95;;;2.90;99.90;;;;;;4998945;28;20022;-72
2022/03/08 01:47:14;;;;;;;12.70;5.97;;;2.90;99.90;;;;;;4998219;28;20049;-71
2022/03/08 01:49:44;;;;;;;16.17;6.05;;;3.00;99.90;;;;;;4996131;28;20035;-71
2022/03/08 01:52:10;;;;;;;14.07;6.32;;;3.00;99.90;;;;;;4996080;28;20026;-71
2022/03/08 01:54:36;;;;;;;10.40;5.38;;;3.00;99.90;;;;;;4997905;28;20042;-71
2022/03/08 01:57:05;;;;;;;13.05;6.45;;;3.00;99.90;;;;;;4980850;28;20038;-70
2022/03/08 01:59:31;;;;;;;14.57;5.95;;;2.90;99.90;;;;;;4998342;28;20399;-71
2022/03/08 02:01:56;;;;;;;10.68;5.82;;;2.90;99.90;;;;;;4996685;28;20038;-70
2022/03/08 02:04:22;;;;;;;10.52;5.35;;;2.90;99.90;;;;;;4995796;28;20101;-71
2022/03/08 02:06:48;;;;;;;10.25;5.60;;;2.90;99.90;;;;;;4999365;28;20030;-71
2022/03/08 02:09:14;;;;;;;9.68;4.85;;;2.90;99.90;;;;;;4993510;28;20049;-71
2022/03/08 02:11:42;;;;;;;11.38;5.22;;;2.90;99.90;;;;;;4986817;28;20915;-70
2022/03/08 02:14:11;;;;;;;10.95;5.80;;;2.90;99.90;;;;;;4992450;28;20036;-71
2022/03/08 02:16:37;;;;;;;10.80;5.38;;;2.90;99.90;;;;;;4991703;28;20030;-71
2022/03/08 02:19:03;;;;;;;8.85;4.82;;;2.90;99.90;;;;;;4997774;28;20538;-71
2022/03/08 02:21:34;;;;;;;12.90;5.88;;;2.90;99.90;;;;;;4995433;28;20408;-71
2022/03/08 02:23:59;;;;;;;12.60;5.45;;;2.80;99.90;;;;;;4997071;28;20029;-71
2022/03/08 02:26:26;;;;;;;11.77;4.80;;;2.80;99.90;;;;;;5003696;28;20095;-71
2022/03/08 02:28:52;;;;;;;9.75;5.32;;;2.70;99.90;;;;;;4997406;28;20433;-71
2022/03/08 02:31:18;;;;;;;8.57;5.10;;;2.80;99.90;;;;;;4996733;28;20080;-71
2022/03/08 02:33:44;;;;;;;10.90;5.45;;;2.80;99.90;;;;;;4994220;28;20058;-71
2022/03/08 02:36:10;;;;;;;10.35;5.22;;;2.70;99.90;;;;;;4994768;28;20252;-71
2022/03/08 02:38:36;;;;;;;9.90;5.18;;;2.80;99.90;;;;;;4996679;28;20130;-72
2022/03/08 02:41:05;;;;;;;8.48;5.22;;;2.70;99.90;;;;;;4997276;28;20105;-71
2022/03/08 02:43:30;;;;;;;11.60;4.97;;;2.70;99.90;;;;;;4995605;28;20030;-71
2022/03/08 02:45:56;;;;;;;9.52;4.70;;;2.70;99.90;;;;;;4995476;28;20384;-71
2022/03/08 02:48:25;;;;;;;9.77;4.97;;;2.70;99.90;;;;;;4995580;28;20027;-71
2022/03/08 02:50:51;;;;;;;13.15;6.22;;;2.60;99.90;;;;;;4992887;28;20034;-71
2022/03/08 02:53:16;;;;;;;10.65;5.68;;;2.60;99.90;;;;;;4994959;28;20526;-71
2022/03/08 02:55:42;;;;;;;11.38;5.65;;;2.60;99.90;;;;;;4996596;28;20505;-71
2022/03/08 02:58:09;;;;;;;10.90;6.35;;;2.60;99.90;;;;;;4994155;28;20026;-71
2022/03/08 03:00:36;;;;;;;10.48;5.78;;;2.60;99.90;;;;;;4998301;28;20018;-70
2022/03/08 03:03:03;;;;;;;11.38;5.95;;;2.60;99.90;;;;;;4998498;28;20030;-71
2022/03/08 03:05:29;;;;;;;8.98;5.63;;;2.50;99.90;;;;;;4993136;28;20032;-71
2022/03/08 03:07:55;;;;;;;11.80;6.10;;;2.50;99.90;;;;;;4997352;28;20046;-71
2022/03/08 03:10:22;;;;;;;9.88;4.85;;;2.50;99.90;;;;;;5004225;28;20068;-72
2022/03/08 03:12:49;;;;;;;9.57;5.03;;;2.50;99.90;;;;;;4992284;28;20502;-71
2022/03/08 03:15:16;;;;;;;11.25;5.18;;;2.50;99.90;;;;;;4995277;28;20042;-71
2022/03/08 03:17:42;;;;;;;8.63;5.05;;;2.50;99.90;;;;;;4994348;28;20038;-71
2022/03/08 03:20:09;;;;;;;9.73;5.22;;;2.50;99.90;;;;;;4994536;28;20091;-72
2022/03/08 03:22:35;;;;;;;9.88;5.43;;;2.50;99.90;;;;;;4994479;28;20030;-71
2022/03/08 03:25:02;;;;;;;10.70;5.07;;;2.40;99.90;;;;;;4993902;28;20440;-70
2022/03/08 03:27:27;;;;;;;10.02;5.22;;;2.40;99.90;;;;;;4992863;28;20428;-70
2022/03/08 03:29:53;;;;;;;10.60;5.10;;;2.40;99.90;;;;;;4997945;28;20022;-71
2022/03/08 03:32:19;;;;;;;8.93;5.00;;;2.30;99.90;;;;;;4993952;28;20465;-70
2022/03/08 03:34:46;;;;;;;9.98;5.18;;;2.30;99.90;;;;;;4996812;28;20036;-70
2022/03/08 03:37:12;;;;;;;10.52;5.10;;;2.40;99.90;;;;;;4998833;28;20030;-70
2022/03/08 03:39:38;;;;;;;9.82;4.55;;;2.40;99.90;;;;;;4997869;28;20034;-71
2022/03/08 03:42:04;;;;;;;9.85;5.25;;;2.40;99.90;;;;;;4991997;28;20037;-71
2022/03/08 03:44:30;;;;;;;8.48;4.82;;;2.40;99.90;;;;;;5008612;28;20025;-71
2022/03/08 03:46:56;;;;;;;12.73;5.03;;;2.40;99.90;;;;;;4994943;28;20034;-71
2022/03/08 03:49:22;;;;;;;7.80;4.43;;;2.40;99.90;;;;;;4996620;28;20084;-71
2022/03/08 03:51:50;;;;;;;9.95;4.15;;;2.40;99.90;;;;;;4992081;28;20037;-71
2022/03/08 03:54:17;;;;;;;9.27;4.22;;;2.40;99.90;;;;;;4994723;28;20105;-71
2022/03/08 03:56:44;;;;;;;8.88;4.90;;;2.30;99.90;;;;;;4999079;28;20110;-72
2022/03/08 03:59:09;;;;;;;8.68;5.00;;;2.30;99.90;;;;;;4992131;28;20032;-71
2022/03/08 04:01:35;;;;;;;9.80;5.13;;;2.30;99.90;;;;;;4994301;28;20036;-71
2022/03/08 04:04:01;;;;;;;9.40;4.25;;;2.30;99.90;;;;;;4994725;28;20599;-71
2022/03/08 04:06:26;;;;;;;12.80;5.43;;;2.30;99.90;;;;;;4991644;28;20023;-71
2022/03/08 04:08:52;;;;;;;8.50;4.80;;;2.30;99.90;;;;;;4990286;28;20042;-71
2022/03/08 04:11:18;;;;;;;11.30;5.20;;;2.30;99.90;;;;;;4984471;28;20034;-71
2022/03/08 04:13:43;;;;;;;9.40;5.07;;;2.30;99.90;;;;;;4989193;28;20037;-71
2022/03/08 04:16:10;;;;;;;10.35;5.50;;;2.30;99.90;;;;;;4987459;28;20587;-71
2022/03/08 04:18:36;;;;;;;11.73;5.53;;;2.30;99.90;;;;;;4988897;28;20592;-71
2022/03/08 04:21:02;;;;;;;9.75;5.25;;;2.20;99.90;;;;;;4986301;28;20022;-71
2022/03/08 04:23:28;;;;;;;11.65;5.75;;;2.20;99.90;;;;;;5006845;28;20018;-71
2022/03/08 04:25:54;;;;;;;10.32;5.20;;;2.10;99.90;;;;;;4987674;28;20030;-71
2022/03/08 04:28:20;;;;;;;12.18;5.72;;;2.10;99.90;;;;;;4993141;28;20081;-71
2022/03/08 04:30:45;;;;;;;10.57;5.53;;;2.00;99.90;;;;;;4995098;28;20460;-71
2022/03/08 04:33:11;;;;;;;12.75;6.68;;;2.00;99.90;;;;;;4994941;28;20034;-71
2022/03/08 04:35:37;;;;;;;14.32;6.85;;;2.00;99.90;;;;;;4997136;28;20088;-71
2022/03/08 04:38:03;;;;;;;11.82;6.65;;;2.10;99.90;;;;;;4995945;28;20041;-71
2022/03/08 04:40:29;;;;;;;13.18;6.47;;;2.10;99.90;;;;;;4996572;28;20064;-71
2022/03/08 04:42:54;;;;;;;15.68;6.93;;;2.20;99.90;;;;;;4996972;28;20062;-71
2022/03/08 04:45:20;;;;;;;11.20;6.35;;;2.10;99.90;;;;;;4998036;28;20138;-71
2022/03/08 04:47:46;;;;;;;12.07;6.13;;;2.00;99.90;;;;;;4996284;28;20189;-70
2022/03/08 04:50:14;;;;;;;14.77;6.32;;;2.00;99.90;;;;;;4992076;28;20570;-71
2022/03/08 04:52:43;;;;;;;13.63;6.22;;;2.00;99.90;;;;;;4993384;28;20038;-71
2022/03/08 04:55:09;;;;;;;14.35;7.72;;;2.00;99.90;;;;;;4997755;28;20484;-71
2022/03/08 04:57:35;;;;;;;13.75;6.38;;;2.00;99.90;;;;;;4997798;28;20034;-71
2022/03/08 05:00:01;;;;;;;11.70;6.38;;;2.00;99.90;;;;;;4995413;28;20037;-71
2022/03/08 05:02:27;;;;;;;13.52;6.53;;;2.00;99.90;;;;;;4992055;28;20101;-71
2022/03/08 05:04:52;;;;;;;12.75;6.82;;;1.90;99.90;;;;;;4996186;28;20125;-72
2022/03/08 05:07:18;;;;;;;14.73;7.53;;;1.90;99.90;;;;;;4994141;28;20026;-71
2022/03/08 05:09:44;;;;;;;13.75;7.00;;;1.80;99.90;;;;;;5000188;28;20030;-71
2022/03/08 05:12:09;;;;;;;16.70;7.53;;;1.80;99.90;;;;;;4998582;28;20026;-71
2022/03/08 05:14:35;;;;;;;13.05;7.50;;;1.90;99.90;;;;;;4998924;28;20571;-70
2022/03/08 05:17:01;;;;;;;13.60;7.30;;;1.90;99.90;;;;;;5002978;28;20117;-71
2022/03/08 05:19:27;;;;;;;15.07;7.28;;;1.90;99.90;;;;;;4995230;28;20026;-71
2022/03/08 05:21:53;;;;;;;12.00;6.97;;;1.80;99.90;;;;;;4994001;28;20496;-71
2022/03/08 05:24:18;;;;;;;15.45;7.03;;;1.80;99.90;;;;;;4992935;28;20117;-72
2022/03/08 05:26:44;;;;;;;12.48;6.97;;;1.80;99.90;;;;;;4996319;28;20022;-71
2022/03/08 05:29:10;;;;;;;15.50;7.85;;;1.70;99.90;;;;;;4991951;28;20391;-71
2022/03/08 05:31:35;;;;;;;12.65;6.80;;;1.70;99.90;;;;;;4989439;28;20502;-71
2022/03/08 05:34:01;;;;;;;12.25;7.72;;;1.70;99.90;;;;;;4993992;28;20109;-71
2022/03/08 05:36:27;;;;;;;12.98;7.03;;;1.70;99.90;;;;;;4997123;28;20058;-71
2022/03/08 05:38:53;;;;;;;15.75;7.22;;;1.70;99.90;;;;;;4996121;28;20498;-71
2022/03/08 05:41:19;;;;;;;15.10;7.53;;;1.70;99.90;;;;;;4996278;28;20972;-71
2022/03/08 05:43:45;;;;;;;13.23;7.10;;;1.60;99.90;;;;;;4994329;28;20030;-71
2022/03/08 05:46:11;;;;;;;12.80;6.93;;;1.70;99.90;;;;;;4992468;28;20058;-70
2022/03/08 05:48:38;;;;;;;15.10;7.35;;;1.70;99.90;;;;;;4993654;28;20562;-71
2022/03/08 05:51:04;;;;;;;13.85;7.25;;;1.70;99.90;;;;;;4995172;28;20114;-71
2022/03/08 05:53:30;;;;;;;13.30;7.05;;;1.60;99.90;;;;;;4998943;28;20116;-72
2022/03/08 05:55:56;;;;;;;10.75;6.60;;;1.60;99.90;;;;;;4991870;28;20034;-71
2022/03/08 05:58:23;;;;;;;15.50;7.78;;;1.60;99.90;;;;;;4994839;28;20245;-71
2022/03/08 06:00:48;;;;;;;12.93;7.28;;;1.60;99.90;;;;;;4993621;28;20492;-71
2022/03/08 06:03:14;;;;;;;12.73;6.72;;;1.60;99.90;;;;;;4992241;28;20216;-71
2022/03/08 06:05:39;;;;;;;14.30;6.55;;;1.60;99.90;;;;;;4994641;28;20041;-71
2022/03/08 06:08:05;;;;;;;16.83;7.35;;;1.60;99.90;;;;;;4993671;28;20117;-71
2022/03/08 06:10:32;;;;;;;11.75;6.95;;;1.60;99.90;;;;;;4995271;28;20035;-71
2022/03/08 06:12:58;;;;;;;14.43;6.60;;;1.70;99.90;;;;;;4994190;28;20038;-71
2022/03/08 06:15:24;;;;;;;16.05;7.65;;;1.70;99.90;;;;;;4996469;28;20431;-71
2022/03/08 06:17:50;;;;;;;12.23;6.53;;;1.70;99.90;;;;;;4994114;28;20035;-71
2022/03/08 06:20:16;;;;;;;13.18;6.45;;;1.70;99.90;;;;;;4997169;28;20897;-71
2022/03/08 06:22:42;;;;;;;12.82;7.55;;;1.80;99.90;;;;;;4992901;28;20491;-71
2022/03/08 06:25:08;;;;;;;12.70;6.85;;;1.80;99.90;;;;;;4994925;28;20018;-72
2022/03/08 06:27:35;;;;;;;13.90;7.50;;;2.00;99.90;;;;;;4992574;28;20030;-71
2022/03/08 06:30:02;;;;;;;14.45;7.00;;;2.00;99.90;;;;;;5000879;28;20025;-72
2022/03/08 06:32:27;;;;;;;11.70;6.75;;;2.00;99.90;;;;;;5003924;28;20072;-71
2022/03/08 06:34:53;;;;;;;11.82;6.88;;;2.10;99.90;;;;;;4990718;28;20025;-71
2022/03/08 06:37:19;;;;;;;11.02;6.70;;;2.10;99.90;;;;;;4993573;28;20281;-71
2022/03/08 06:39:46;;;;;;;14.23;7.38;;;2.10;99.90;;;;;;4988762;28;20496;-71
2022/03/08 06:42:12;;;;;;;12.50;7.43;;;2.10;99.90;;;;;;4992040;28;20034;-71
2022/03/08 06:44:39;;;;;;;14.70;7.20;;;2.10;99.90;;;;;;4995154;28;20029;-71
2022/03/08 06:47:09;;;;;;;13.00;7.45;;;2.20;99.90;;;;;;4993976;28;20404;-71
2022/03/08 06:49:38;;;;;;;15.55;7.60;;;2.20;99.90;;;;;;4989119;28;20031;-71
2022/03/08 06:52:05;;;;;;;12.00;6.65;;;2.30;99.90;;;;;;4994082;28;20037;-71
2022/03/08 06:54:30;;;;;;;14.10;6.72;;;2.30;99.90;;;;;;4992435;28;20034;-71
2022/03/08 06:56:56;;;;;;;12.73;7.10;;;2.30;99.90;;;;;;4987733;28;20199;-71
2022/03/08 06:59:23;;;;;;;12.93;6.88;;;2.40;99.90;;;;;;4987957;28;20152;-71
2022/03/08 07:01:49;;;;;;;12.82;6.45;;;2.40;99.90;;;;;;4986026;28;20519;-71
2022/03/08 07:04:14;;;;;;;12.43;6.35;;;2.40;99.90;;;;;;4994048;28;20424;-71
2022/03/08 07:06:40;;;;;;;11.15;6.10;;;2.50;99.90;;;;;;4985701;28;20113;-72
2022/03/08 07:09:06;;;;;;;12.57;6.43;;;2.50;99.90;;;;;;4980693;28;20445;-71
2022/03/08 07:11:35;;;;;;;16.88;7.10;;;2.50;99.90;;;;;;4985507;28;20204;-72
2022/03/08 07:14:01;;;;;;;10.20;5.70;;;2.60;99.90;;;;;;4992920;28;20144;-71
2022/03/08 07:16:27;;;;;;;12.10;5.63;;;2.60;99.90;;;;;;4985625;28;20030;-72
2022/03/08 07:18:56;;;;;;;11.50;5.70;;;2.60;99.90;;;;;;4986698;28;20030;-71
2022/03/08 07:21:23;;;;;;;8.90;5.85;;;2.70;99.90;;;;;;4987008;28;20053;-71
2022/03/08 07:23:49;;;;;;;12.40;5.82;;;2.70;99.90;;;;;;4988481;28;20030;-71
2022/03/08 07:26:14;;;;;;;10.18;5.22;;;2.70;99.90;;;;;;4988795;28;20034;-72
2022/03/08 07:28:40;;;;;;;14.02;6.25;;;2.80;99.90;;;;;;4982093;28;20034;-71
2022/03/08 07:31:06;;;;;;;17.75;6.32;;;2.80;99.90;;;;;;4992016;28;20471;-71
2022/03/08 07:33:33;;;;;;;10.82;6.00;;;2.90;99.90;;;;;;4989319;28;20033;-71
2022/03/08 07:35:59;;;;;;;12.23;6.00;;;2.90;99.90;;;;;;4994459;28;20026;-70
2022/03/08 07:38:26;;;;;;;10.75;5.60;;;2.90;99.90;;;;;;4989453;28;20026;-72
2022/03/08 07:40:52;;;;;;;9.85;5.05;;;3.00;99.90;;;;;;4990780;28;20030;-70
2022/03/08 07:43:17;;;;;;;12.57;5.47;;;3.00;99.90;;;;;;4993986;28;20021;-71
2022/03/08 07:45:43;;;;;;;14.48;4.78;;;3.10;99.90;;;;;;4995950;28;20030;-73
2022/03/08 07:48:09;;;;;;;9.00;5.20;;;3.10;99.90;;;;;;4996019;28;20035;-72
2022/03/08 07:50:36;;;;;;;9.98;4.35;;;3.10;99.90;;;;;;4993898;28;20037;-72
2022/03/08 07:53:03;;;;;;;8.75;3.95;;;3.10;99.90;;;;;;4989423;28;20467;-71
2022/03/08 07:55:30;;;;;;;7.10;3.38;;;3.20;99.90;;;;;;4982670;28;20118;-71
2022/03/08 07:57:57;;;;;;;8.50;3.70;;;3.20;99.70;;;;;;4984729;28;20030;-73
2022/03/08 08:00:24;;;;;;;9.23;4.20;;;3.30;99.20;;;;;;4994195;28;20026;-72
2022/03/08 08:02:50;;;;;;;10.00;3.55;;;3.30;98.40;;;;;;4996579;28;20130;-72
2022/03/08 08:05:17;;;;;;;7.40;3.30;;;3.30;98.30;;;;;;4996085;28;20195;-72
2022/03/08 08:07:44;;;;;;;8.35;3.67;;;3.40;97.70;;;;;;4993365;28;20026;-72
2022/03/08 08:10:10;;;;;;;8.32;3.50;;;3.40;97.50;;;;;;5000621;28;21402;-73
2022/03/08 08:12:37;;;;;;;11.00;3.97;;;3.50;97.00;;;;;;4992564;28;20040;-73
2022/03/08 08:15:03;;;;;;;8.00;3.50;;;3.60;96.90;;;;;;4989202;28;20034;-73
2022/03/08 08:17:30;;;;;;;12.10;3.65;;;3.60;95.90;;;;;;4989754;28;20026;-72
2022/03/08 08:19:56;;;;;;;5.82;2.85;;;3.70;95.00;;;;;;4989254;28;20089;-73
2022/03/08 08:22:22;;;;;;;10.68;3.22;;;3.80;94.10;;;;;;4991844;28;20026;-74
2022/03/08 08:24:48;;;;;;;7.35;3.20;;;3.80;94.00;;;;;;4994553;28;20041;-72
2022/03/08 08:27:14;;;;;;;7.15;3.53;;;3.90;93.90;;;;;;4989737;28;20030;-75
2022/03/08 08:29:40;;;;;;;6.78;3.15;;;3.90;92.70;;;;;;4988690;28;20259;-72
2022/03/08 08:32:07;;;;;;;7.30;3.15;;;4.00;92.30;;;;;;4991058;28;20312;-72
2022/03/08 08:34:32;;;;;;;6.90;3.17;;;4.10;91.40;;;;;;4994853;28;20112;-73
2022/03/08 08:36:58;;;;;;;7.55;3.25;;;4.20;91.30;;;;;;4995025;28;20105;-71
2022/03/08 08:39:24;;;;;;;8.02;3.50;;;4.20;90.90;;;;;;4997864;28;20034;-72
2022/03/08 08:41:50;;;;;;;6.28;3.30;;;4.20;90.50;;;;;;5002720;28;20030;-71
2022/03/08 08:44:17;;;;;;;6.63;3.28;;;4.30;90.10;;;;;;5000302;28;20022;-72
2022/03/08 08:46:42;;;;;;;9.65;3.35;;;4.40;89.10;;;;;;4998672;28;20476;-71
2022/03/08 08:49:08;;;;;;;8.50;3.65;;;4.50;87.90;;;;;;4998921;28;20804;-72
2022/03/08 08:51:34;;;;;;;9.93;3.47;;;4.50;87.20;;;;;;4999660;28;20522;-71
2022/03/08 08:54:00;;;;;;;11.27;3.80;;;4.60;86.90;;;;;;4995870;28;20043;-73
2022/03/08 08:56:27;;;;;;;8.82;3.15;;;4.70;86.80;;;;;;4999556;28;20499;-72
2022/03/08 08:58:53;;;;;;;7.28;3.53;;;4.70;86.30;;;;;;4997204;28;20037;-72
2022/03/08 09:01:19;;;;;;;6.97;3.13;;;4.80;85.40;;;;;;4999145;28;20034;-72
2022/03/08 09:03:44;;;;;;;7.90;2.83;;;4.90;83.40;;;;;;5009876;28;20109;-71
2022/03/08 09:06:10;;;;;;;13.80;3.60;;;4.90;82.50;;;;;;4998840;28;20029;-72
2022/03/08 09:08:36;;;;;;;6.03;2.83;;;5.00;82.50;;;;;;4999832;28;20365;-72
2022/03/08 09:11:05;;;;;;;6.90;2.72;;;5.00;81.60;;;;;;4998773;28;20472;-72
2022/03/08 09:13:31;;;;;;;6.18;2.60;;;5.10;81.50;;;;;;4996475;28;20050;-71
2022/03/08 09:15:57;;;;;;;6.60;2.85;;;5.10;81.50;;;;;;4998059;28;20094;-72
2022/03/08 09:18:23;;;;;;;4.88;2.60;;;5.10;80.90;;;;;;4998851;28;20068;-72
2022/03/08 09:20:49;;;;;;;8.32;3.33;;;5.20;80.30;;;;;;5008405;28;20125;-72
2022/03/08 09:23:15;;;;;;;10.07;3.05;;;5.20;79.90;;;;;;4979960;28;20026;-72
2022/03/08 09:25:41;;;;;;;8.93;3.55;;;5.20;80.20;;;;;;4998315;28;20041;-72
2022/03/08 09:28:07;;;;;;;7.63;3.20;;;5.20;79.80;;;;;;4999184;28;20044;-72
2022/03/08 09:30:36;;;;;;;6.18;3.40;;;5.30;80.30;;;;;;4998151;28;20030;-72
2022/03/08 09:33:03;;;;;;;7.05;2.92;;;5.30;80.50;;;;;;4998112;28;20038;-71
2022/03/08 09:35:29;;;;;;;9.93;3.20;;;5.40;80.20;;;;;;4998239;28;20381;-72
2022/03/08 09:37:56;;;;;;;6.43;3.50;;;5.40;80.00;;;;;;5010926;28;20038;-72
2022/03/08 09:40:23;;;;;;;9.80;3.28;;;5.50;79.90;;;;;;5002239;28;20105;-72
2022/03/08 09:42:50;;;;;;;8.63;3.15;;;5.60;79.70;;;;;;4998969;28;20034;-72
2022/03/08 09:45:17;;;;;;;7.25;3.20;;;5.60;78.70;;;;;;4999692;28;20129;-72
2022/03/08 09:47:43;;;;;;;9.07;3.30;;;5.70;78.60;;;;;;5002602;28;20034;-72
2022/03/08 09:50:14;;;;;;;5.82;3.20;;;5.80;77.90;;;;;;5015827;28;20030;-72
2022/03/08 09:52:41;;;;;;;7.15;3.58;;;5.90;78.00;;;;;;5000748;28;20038;-72
2022/03/08 09:55:11;;;;;;;8.10;3.08;;;6.10;77.90;;;;;;5050898;22;20512;-73
2022/03/08 09:57:36;;;;;;;9.82;3.58;;;6.20;77.10;;;;;;5033177;28;20029;-72
2022/03/08 10:00:04;;;;;;;10.00;3.85;;;6.30;75.40;;;;;;5033511;28;20052;-72
2022/03/08 10:02:47;;;;;;;7.50;2.95;;;6.50;73.80;;;;;;5033641;28;20540;-73
2022/03/08 10:05:14;;;;;;;7.60;3.05;;;6.60;73.80;;;;;;5024498;28;20317;-73
2022/03/08 10:07:39;;;;;;;6.82;3.00;;;6.70;73.50;;;;;;5021840;28;20033;-72
2022/03/08 10:10:06;;;;;;;4.97;2.63;;;6.80;72.60;;;;;;5016149;28;20034;-71
2022/03/08 10:12:32;;;;;;;8.07;3.08;;;6.90;73.10;;;;;;5020251;28;20062;-71
2022/03/08 10:14:58;;;;;;;16.17;3.28;;;7.00;71.60;;;;;;5017167;28;20041;-72
2022/03/08 10:17:40;;;;;;;7.70;3.10;;;7.20;71.50;;;;;;5017069;28;20034;-72
2022/03/08 10:20:09;;;;;;;6.40;2.85;;;7.40;71.70;;;;;;5030857;28;20038;-72
2022/03/08 10:22:42;;;;;;;7.65;3.17;;;7.60;70.80;;;;;;5017289;28;20029;-72
2022/03/08 10:25:19;;;;;;;5.63;3.00;;;7.90;69.20;;;;;;5013682;28;20945;-72
2022/03/08 10:27:54;;;;;;;5.60;2.83;;;8.10;68.00;;;;;;5012617;28;20029;-73
2022/03/08 10:30:25;;;;;;;4.20;2.80;;;8.30;65.50;;;;;;5001586;28;20046;-71
2022/03/08 10:32:54;;;;;;;7.37;2.70;;;8.50;64.40;;;;;;5008858;28;20109;-70
2022/03/08 10:35:28;;;;;;;6.05;3.50;;;8.70;64.80;;;;;;5008566;28;20499;-70
2022/03/08 10:37:58;;;;;;;4.90;2.60;;;8.80;64.90;;;;;;5012345;28;20033;-73
2022/03/08 10:40:32;;;;;;;5.53;2.90;;;9.00;63.30;;;;;;5009204;28;20025;-72
2022/03/08 10:43:06;;;;;;;5.22;2.60;;;9.10;63.10;;;;;;5012700;28;20025;-73
2022/03/08 10:45:41;;;;;;;6.47;2.00;;;9.10;60.30;;;;;;5026535;28;20104;-72
2022/03/08 10:48:08;;;;;;;5.22;1.90;;;9.10;60.00;;;;;;5015170;28;20033;-72
2022/03/08 10:50:37;;;;;;;5.18;2.05;;;9.10;59.90;;;;;;5014626;28;20021;-72
2022/03/08 10:53:05;;;;;;;4.35;2.50;;;9.10;59.50;;;;;;5012437;28;20065;-71
2022/03/08 10:55:44;;;;;;;7.72;2.67;;;9.10;59.30;;;;;;4992353;28;20030;-76
2022/03/08 10:58:14;;;;;;;3.53;2.22;;;9.00;59.50;;;;;;5012872;28;20675;-70
2022/03/08 11:00:46;;;;;;;5.50;2.63;;;9.00;59.30;;;;;;5035607;28;20083;-70
2022/03/08 11:03:19;;;;;;;3.85;2.30;;;9.00;58.20;;;;;;5015273;28;20026;-70
2022/03/08 11:05:46;;;;;;;5.88;2.63;;;9.10;58.80;;;;;;5031238;28;20460;-70
2022/03/08 11:08:13;;;;;;;7.07;3.00;;;9.10;57.90;;;;;;5020933;28;20025;-70
2022/03/08 11:10:39;;;;;;;7.88;2.47;;;9.20;58.70;;;;;;5011197;28;20042;-71
2022/03/08 11:13:07;;;;;;;6.60;3.00;;;9.50;58.50;;;;;;5007885;28;20038;-72
2022/03/08 11:15:35;;;;;;;13.60;3.00;;;10.30;56.90;;;;;;5008016;28;20034;-71
2022/03/08 11:18:03;;;;;;;4.40;2.53;;;12.20;54.40;;;;;;4999890;28;20029;-71
2022/03/08 11:20:30;;;;;;;4.70;2.28;;;14.80;47.90;;;;;;5006455;28;20032;-73
2022/03/08 11:22:58;;;;;;;5.68;2.00;;;17.40;42.50;;;;;;5004354;28;20040;-73
2022/03/08 11:25:39;;;;;;;6.57;2.42;;;19.60;37.90;;;;;;4997450;28;20026;-74
2022/03/08 11:28:06;;;;;;;2.53;1.50;;;21.10;35.10;;;;;;5004861;28;20111;-73
2022/03/08 11:30:48;;;;;;;2.80;1.63;;;22.40;32.90;;;;;;5001000;28;20506;-73
2022/03/08 11:33:33;;;;;;;3.40;2.10;;;23.00;32.10;;;;;;5005325;28;20524;-73
2022/03/08 11:36:23;;;;;;;5.25;2.30;;;23.60;30.20;;;;;;5003472;28;20040;-73
2022/03/08 11:39:08;;;;;;;;;;;23.50;31.00;;;;;;5006830;28;20056;-73
2022/03/08 11:41:33;;;;;;;2.97;2.10;;;23.30;28.10;;;;;;5004720;28;20784;-72
2022/03/08 11:43:59;;;;;;;2.63;2.17;;;23.20;29.80;;;;;;5008232;28;20126;-74
2022/03/08 11:46:25;;;;;;;4.43;2.15;;;23.00;30.50;;;;;;5001256;28;20651;-72
2022/03/08 11:49:03;;;;;;;4.90;2.33;;;22.80;30.50;;;;;;5005974;28;20029;-72
2022/03/08 11:51:31;;;;;;;6.60;2.60;;;22.20;30.00;;;;;;5005727;28;20052;-71
2022/03/08 11:54:24;;;;;;;4.93;2.38;;;21.20;31.90;;;;;;5005351;28;20030;-69
2022/03/08 11:56:52;;;;;;;4.05;2.25;;;20.20;32.60;;;;;;5014728;28;20033;-77
2022/03/08 11:59:18;;;;;;;6.25;1.98;;;18.90;34.30;;;;;;5013373;28;20029;-73
2022/03/08 12:01:45;;;;;;;4.28;1.90;;;17.50;35.50;;;;;;5018342;28;20096;-73
2022/03/08 12:04:13;;;;;;;3.83;2.15;;;16.40;35.70;;;;;;5019246;28;20551;-73
2022/03/08 12:06:41;;;;;;;4.45;2.30;;;15.40;38.40;;;;;;5011922;28;20039;-70
2022/03/08 12:09:15;;;;;;;5.05;2.20;;;14.70;39.20;;;;;;5016808;28;20025;-70
2022/03/08 12:11:58;;;;;;;3.35;1.80;;;14.20;40.60;;;;;;5014357;28;20057;-72
2022/03/08 12:14:26;;;;;;;3.33;1.92;;;13.90;41.20;;;;;;5017157;28;20036;-72
2022/03/08 12:17:14;;;;;;;3.47;2.30;;;13.40;42.10;;;;;;5017754;28;20033;-73
2022/03/08 12:19:42;;;;;;;6.85;1.85;;;13.10;43.30;;;;;;5017379;28;20037;-72
2022/03/08 12:22:11;;;;;;;4.13;1.77;;;12.70;42.50;;;;;;5014579;28;20436;-71
2022/03/08 12:24:40;;;;;;;3.97;1.80;;;12.40;43.20;;;;;;4996960;28;20036;-72
2022/03/08 12:27:07;;;;;;;172.10;91.72;;;12.10;44.30;;;;;;5015571;28;20041;-71
2022/03/08 12:29:59;;;;;;;231.85;113.88;;;11.80;44.30;;;;;;5017503;28;20041;-71
2022/03/08 12:32:34;;;;;;;139.07;72.20;;;11.50;45.40;;;;;;5009982;28;20065;-72
2022/03/08 12:35:10;;;;;;;99.18;62.53;;;11.20;45.60;;;;;;5033235;28;20118;-72
2022/03/08 12:37:39;;;;;;;5.63;3.20;;;11.10;46.60;;;;;;5015413;28;20438;-72
2022/03/08 12:40:35;;;;;;;5.78;2.85;;;10.90;46.90;;;;;;5026773;28;20060;-72
2022/03/08 12:43:14;;;;;;;5.40;2.67;;;10.70;47.70;;;;;;5017312;28;20037;-72
2022/03/08 12:45:47;;;;;;;5.00;2.13;;;10.50;48.20;;;;;;5013398;28;20427;-71
2022/03/08 12:48:19;;;;;;;5.07;2.60;;;10.30;49.20;;;;;;5035359;28;20171;-71
2022/03/08 12:50:48;;;;;;;8.52;3.38;;;10.10;49.70;;;;;;5015166;28;20030;-71
2022/03/08 12:53:25;;;;;;;6.05;2.60;;;10.10;50.30;;;;;;5016012;28;20482;-72